Language: 


Des rapports , des résumés tant et plus, au choix de chacun....


Données Historiques de Météogheer
Journalier Rapport pour Février 5, 2018 Unitée:  Les deux    Impériale   Métrique
Suivant Jour »
Journalier Hebdomadaire Mensuel Annuel Sur mesure
  Max: Min: Moyenne:
Température: 40.3 °F /  4.6 °C 32 °F /  0.0 °C 36.1 °F /  2.3 °C
Point de rosée: 33.8 °F /  1.0 °C 26.6 °F /  -3.0 °C 31.8 °F /  -0.1 °C
Humidité: 90% 0% 81%
Vent: 17.7mph /  28.5km/h - 7.6mph /  12.3km/h
Rafales: 17.7mph /  28.5km/h - -
Vent- - ENE
Pression: 30.3 in /  1024.9 hPa 0 in /  0.0 hPa -
Pluie: 0 in /  0.0 mm    
Historical Graphs
 
 
Données tabulaires pour Février 5, 2018
Heure Température Point de rosée Pression Vent Vent Rafales Humidité Pluie Taux (Horaire) Conditions
00:04 36.1 °F /  2.3 °C 33.8 °F /  1.0 °C 30.3in /  1024.9hPa NE 7.4mph /  11.9km/h 8.7mph /  14.0km/h 90% 0in /  0.0mm
00:09 36.1 °F /  2.3 °C 33.8 °F /  1.0 °C 30.3in /  1024.9hPa NE 4.9mph /  7.9km/h 9.4mph /  15.1km/h 90% 0in /  0.0mm
00:14 36.1 °F /  2.3 °C 33.8 °F /  1.0 °C 30.2in /  1023.9hPa NE 10.5mph /  16.9km/h 10.5mph /  16.9km/h 90% 0in /  0.0mm
00:19 36.1 °F /  2.3 °C 33.8 °F /  1.0 °C 30.2in /  1023.9hPa NE 8.5mph /  13.7km/h 10.5mph /  16.9km/h 90% 0in /  0.0mm
00:24 36.1 °F /  2.3 °C 33.8 °F /  1.0 °C 30.2in /  1023.9hPa NE 6.9mph /  11.1km/h 9.8mph /  15.8km/h 90% 0in /  0.0mm
00:29 36.1 °F /  2.3 °C 33.8 °F /  1.0 °C 30.2in /  1023.9hPa NE 8.1mph /  13.0km/h 8.5mph /  13.7km/h 90% 0in /  0.0mm
00:34 36.1 °F /  2.3 °C 33.8 °F /  1.0 °C 30.2in /  1023.9hPa NE 8.1mph /  13.0km/h 8.5mph /  13.7km/h 90% 0in /  0.0mm
00:39 36.1 °F /  2.3 °C 33.8 °F /  1.0 °C 30.2in /  1023.9hPa NE 7.4mph /  11.9km/h 9.6mph /  15.4km/h 90% 0in /  0.0mm
00:44 36.1 °F /  2.3 °C 33.8 °F /  1.0 °C 30.3in /  1024.9hPa NE 8.5mph /  13.7km/h 9.8mph /  15.8km/h 90% 0in /  0.0mm
00:49 36.1 °F /  2.3 °C 33.8 °F /  1.0 °C 30.3in /  1024.9hPa NNE 10.3mph /  16.6km/h 12.1mph /  19.5km/h 90% 0in /  0.0mm
00:54 36.1 °F /  2.3 °C 33.8 °F /  1.0 °C 30.3in /  1024.9hPa NE 8.7mph /  14.0km/h 12.8mph /  20.6km/h 90% 0in /  0.0mm
00:59 36.1 °F /  2.3 °C 33.8 °F /  1.0 °C 30.3in /  1024.9hPa ENE 6.3mph /  10.1km/h 12.8mph /  20.6km/h 90% 0in /  0.0mm
01:04 36.1 °F /  2.3 °C 33.8 °F /  1.0 °C 30.3in /  1024.9hPa ENE 7.4mph /  11.9km/h 10.5mph /  16.9km/h 90% 0in /  0.0mm
01:09 36.1 °F /  2.3 °C 33.8 °F /  1.0 °C 30.3in /  1024.9hPa NE 6.5mph /  10.5km/h 10.3mph /  16.6km/h 90% 0in /  0.0mm
01:14 36.1 °F /  2.3 °C 33.8 °F /  1.0 °C 30.2in /  1023.9hPa ENE 7.2mph /  11.6km/h 9.6mph /  15.4km/h 90% 0in /  0.0mm
01:19 36.1 °F /  2.3 °C 33.8 °F /  1.0 °C 30.2in /  1023.9hPa ENE 9.6mph /  15.4km/h 9.6mph /  15.4km/h 90% 0in /  0.0mm
01:24 36.1 °F /  2.3 °C 33.8 °F /  1.0 °C 30.2in /  1023.9hPa NNE 8.1mph /  13.0km/h 10.3mph /  16.6km/h 90% 0in /  0.0mm
01:29 36.1 °F /  2.3 °C 33.8 °F /  1.0 °C 30.2in /  1023.9hPa NE 6mph /  9.7km/h 10.3mph /  16.6km/h 90% 0in /  0.0mm
01:34 36.1 °F /  2.3 °C 33.8 °F /  1.0 °C 30.2in /  1023.9hPa ENE 7.8mph /  12.6km/h 10.1mph /  16.3km/h 90% 0in /  0.0mm
01:39 36.1 °F /  2.3 °C 33.8 °F /  1.0 °C 30.2in /  1023.9hPa ENE 7.8mph /  12.6km/h 10.1mph /  16.3km/h 90% 0in /  0.0mm
01:44 36.1 °F /  2.3 °C 33.8 °F /  1.0 °C 30.2in /  1022.9hPa NE 8.1mph /  13.0km/h 8.5mph /  13.7km/h 90% 0in /  0.0mm
01:49 36.1 °F /  2.3 °C 33.8 °F /  1.0 °C 30.2in /  1022.9hPa NE 6.3mph /  10.1km/h 8.5mph /  13.7km/h 90% 0in /  0.0mm
01:54 36.1 °F /  2.3 °C 33.8 °F /  1.0 °C 30.2in /  1022.9hPa ENE 5.8mph /  9.3km/h 8.5mph /  13.7km/h 90% 0in /  0.0mm
01:59 36.1 °F /  2.3 °C 33.8 °F /  1.0 °C 30.2in /  1022.9hPa NE 5.8mph /  9.3km/h 8.1mph /  13.0km/h 90% 0in /  0.0mm
02:04 36.1 °F /  2.3 °C 33.8 °F /  1.0 °C 30.2in /  1022.9hPa NNE 7.6mph /  12.2km/h 8.7mph /  14.0km/h 90% 0in /  0.0mm
02:09 36.1 °F /  2.3 °C 33.8 °F /  1.0 °C 30.2in /  1022.9hPa NE 7.8mph /  12.6km/h 12.8mph /  20.6km/h 90% 0in /  0.0mm
02:14 36.1 °F /  2.3 °C 33.8 °F /  1.0 °C 30.2in /  1022.9hPa ENE 5.8mph /  9.3km/h 12.8mph /  20.6km/h 90% 0in /  0.0mm
02:20 36.1 °F /  2.3 °C 33.8 °F /  1.0 °C 30.2in /  1022.9hPa ENE 7.6mph /  12.2km/h 10.1mph /  16.3km/h 90% 0in /  0.0mm
02:25 36.1 °F /  2.3 °C 33.8 °F /  1.0 °C 30.2in /  1022.9hPa NNE 4.3mph /  6.9km/h 8.5mph /  13.7km/h 90% 0in /  0.0mm
02:30 36.1 °F /  2.3 °C 33.8 °F /  1.0 °C 30.2in /  1022.9hPa ENE 4.3mph /  6.9km/h 5.6mph /  9.0km/h 90% 0in /  0.0mm
02:35 36.1 °F /  2.3 °C 33.8 °F /  1.0 °C 30.2in /  1022.9hPa Calm   6.3mph /  10.1km/h 90% 0in /  0.0mm
02:40 36.1 °F /  2.3 °C 33.8 °F /  1.0 °C 30.2in /  1022.9hPa NE 1.6mph /  2.6km/h 6.3mph /  10.1km/h 90% 0in /  0.0mm
02:45 36.1 °F /  2.3 °C 33.8 °F /  1.0 °C 30.2in /  1022.9hPa NE 3.1mph /  5.0km/h 4.9mph /  7.9km/h 90% 0in /  0.0mm
02:50 36.1 °F /  2.3 °C 33.8 °F /  1.0 °C 30.2in /  1022.9hPa ENE 4.5mph /  7.2km/h 5.4mph /  8.7km/h 90% 0in /  0.0mm
02:55 36.1 °F /  2.3 °C 33.8 °F /  1.0 °C 30.2in /  1022.9hPa Calm   5.4mph /  8.7km/h 90% 0in /  0.0mm
03:00 36.1 °F /  2.3 °C 33.8 °F /  1.0 °C 30.2in /  1022.9hPa NE 4.3mph /  6.9km/h 7.4mph /  11.9km/h 90% 0in /  0.0mm
03:05 36.1 °F /  2.3 °C 33.8 °F /  1.0 °C 30.2in /  1022.9hPa NE 4.3mph /  6.9km/h 7.4mph /  11.9km/h 90% 0in /  0.0mm
03:10 36.1 °F /  2.3 °C 33.8 °F /  1.0 °C 30.2in /  1022.9hPa NE 5.4mph /  8.7km/h 5.8mph /  9.3km/h 90% 0in /  0.0mm
03:15 36.1 °F /  2.3 °C 33.8 °F /  1.0 °C 30.2in /  1022.9hPa NE 4.9mph /  7.9km/h 5.6mph /  9.0km/h 90% 0in /  0.0mm
03:20 36.1 °F /  2.3 °C 33.8 °F /  1.0 °C 30.2in /  1022.9hPa NNE 5.4mph /  8.7km/h 6mph /  9.7km/h 90% 0in /  0.0mm
03:25 36.1 °F /  2.3 °C 33.8 °F /  1.0 °C 30.2in /  1022.9hPa ENE 7.2mph /  11.6km/h 9.2mph /  14.8km/h 90% 0in /  0.0mm
03:30 36.1 °F /  2.3 °C 33.8 °F /  1.0 °C 30.2in /  1023.9hPa NNE 6.5mph /  10.5km/h 9.2mph /  14.8km/h 90% 0in /  0.0mm
03:35 36.1 °F /  2.3 °C 33.8 °F /  1.0 °C 30.2in /  1023.9hPa NE 6.3mph /  10.1km/h 8.1mph /  13.0km/h 90% 0in /  0.0mm
03:40 36.1 °F /  2.3 °C 33.8 °F /  1.0 °C 30.2in /  1023.9hPa NE 5.8mph /  9.3km/h 8.7mph /  14.0km/h 90% 0in /  0.0mm
03:45 36.1 °F /  2.3 °C 33.8 °F /  1.0 °C 30.2in /  1022.9hPa ENE 7.8mph /  12.6km/h 9.4mph /  15.1km/h 90% 0in /  0.0mm
03:50 36.1 °F /  2.3 °C 33.8 °F /  1.0 °C 30.2in /  1022.9hPa ENE 9.6mph /  15.4km/h 9.6mph /  15.4km/h 90% 0in /  0.0mm
03:55 36.1 °F /  2.3 °C 33.8 °F /  1.0 °C 30.2in /  1022.9hPa ENE 5.8mph /  9.3km/h 9.6mph /  15.4km/h 90% 0in /  0.0mm
04:00 36.1 °F /  2.3 °C 33.8 °F /  1.0 °C 30.2in /  1022.9hPa ENE 9.4mph /  15.1km/h 9.6mph /  15.4km/h 90% 0in /  0.0mm
04:05 36.1 °F /  2.3 °C 33.8 °F /  1.0 °C 30.2in /  1022.9hPa ENE 7.6mph /  12.2km/h 9.4mph /  15.1km/h 90% 0in /  0.0mm
04:11 36.1 °F /  2.3 °C 33.8 °F /  1.0 °C 30.2in /  1022.9hPa ENE 6.9mph /  11.1km/h 8.7mph /  14.0km/h 90% 0in /  0.0mm
04:16 36.1 °F /  2.3 °C 33.8 °F /  1.0 °C 30.2in /  1022.9hPa ENE 7.8mph /  12.6km/h 8.1mph /  13.0km/h 90% 0in /  0.0mm
04:21 36.1 °F /  2.3 °C 33.8 °F /  1.0 °C 30.2in /  1022.9hPa NE 8.7mph /  14.0km/h 8.9mph /  14.3km/h 90% 0in /  0.0mm
04:26 36.1 °F /  2.3 °C 33.8 °F /  1.0 °C 30.2in /  1022.9hPa ENE 5.6mph /  9.0km/h 8.9mph /  14.3km/h 90% 0in /  0.0mm
04:31 36.1 °F /  2.3 °C 33.8 °F /  1.0 °C 30.2in /  1022.9hPa ENE 6.5mph /  10.5km/h 8.7mph /  14.0km/h 90% 0in /  0.0mm
04:36 36.1 °F /  2.3 °C 33.8 °F /  1.0 °C 30.2in /  1022.9hPa ENE 7.6mph /  12.2km/h 8.5mph /  13.7km/h 90% 0in /  0.0mm
04:41 36.1 °F /  2.3 °C 33.8 °F /  1.0 °C 30.2in /  1022.9hPa NE 5.8mph /  9.3km/h 10.1mph /  16.3km/h 90% 0in /  0.0mm
04:46 36.1 °F /  2.3 °C 33.8 °F /  1.0 °C 30.2in /  1022.9hPa ENE 8.5mph /  13.7km/h 10.5mph /  16.9km/h 90% 0in /  0.0mm
04:51 36.1 °F /  2.3 °C 33.8 °F /  1.0 °C 30.2in /  1022.9hPa ENE 9.6mph /  15.4km/h 10.5mph /  16.9km/h 90% 0in /  0.0mm
04:56 36.1 °F /  2.3 °C 33.8 °F /  1.0 °C 30.2in /  1022.9hPa ENE 7.4mph /  11.9km/h 9.6mph /  15.4km/h 90% 0in /  0.0mm
05:01 36.1 °F /  2.3 °C 33.8 °F /  1.0 °C 30.2in /  1022.9hPa NE 8.1mph /  13.0km/h 8.5mph /  13.7km/h 90% 0in /  0.0mm
05:06 36.1 °F /  2.3 °C 33.8 °F /  1.0 °C 30.2in /  1022.9hPa ENE 7.8mph /  12.6km/h 8.1mph /  13.0km/h 90% 0in /  0.0mm
05:11 36.1 °F /  2.3 °C 33.8 °F /  1.0 °C 30.2in /  1022.9hPa NE 6.3mph /  10.1km/h 8.7mph /  14.0km/h 90% 0in /  0.0mm
05:16 36.1 °F /  2.3 °C 33.8 °F /  1.0 °C 30.2in /  1022.9hPa NE 7.8mph /  12.6km/h 8.7mph /  14.0km/h 90% 0in /  0.0mm
05:21 36.1 °F /  2.3 °C 33.8 °F /  1.0 °C 30.2in /  1022.9hPa ENE 7.2mph /  11.6km/h 8.1mph /  13.0km/h 90% 0in /  0.0mm
05:26 36.1 °F /  2.3 °C 33.8 °F /  1.0 °C 30.2in /  1022.9hPa NE 6.5mph /  10.5km/h 8.9mph /  14.3km/h 90% 0in /  0.0mm
05:31 36.1 °F /  2.3 °C 33.8 °F /  1.0 °C 30.2in /  1022.9hPa ENE 7.6mph /  12.2km/h 8.9mph /  14.3km/h 90% 0in /  0.0mm
05:36 36.1 °F /  2.3 °C 33.8 °F /  1.0 °C 30.2in /  1022.9hPa NE 6.5mph /  10.5km/h 8.7mph /  14.0km/h 90% 0in /  0.0mm
05:41 36.1 °F /  2.3 °C 33.8 °F /  1.0 °C 30.2in /  1022.9hPa NE 5.4mph /  8.7km/h 8.7mph /  14.0km/h 90% 0in /  0.0mm
05:46 36.1 °F /  2.3 °C 33.8 °F /  1.0 °C 30.2in /  1022.9hPa ENE 7.2mph /  11.6km/h 8.1mph /  13.0km/h 90% 0in /  0.0mm
05:51 36.1 °F /  2.3 °C 33.8 °F /  1.0 °C 30.2in /  1022.9hPa NE 6.5mph /  10.5km/h 8.7mph /  14.0km/h 90% 0in /  0.0mm
05:56 36.1 °F /  2.3 °C 33.8 °F /  1.0 °C 30.2in /  1022.9hPa NE 6.5mph /  10.5km/h 8.7mph /  14.0km/h 90% 0in /  0.0mm
06:01 36.1 °F /  2.3 °C 33.8 °F /  1.0 °C 30.2in /  1022.9hPa NE 8.5mph /  13.7km/h 8.5mph /  13.7km/h 90% 0in /  0.0mm
06:06 36.1 °F /  2.3 °C 33.8 °F /  1.0 °C 30.2in /  1022.9hPa NE 6.3mph /  10.1km/h 8.5mph /  13.7km/h 90% 0in /  0.0mm
06:12 36.1 °F /  2.3 °C 33.8 °F /  1.0 °C 30.2in /  1022.9hPa NE 5.6mph /  9.0km/h 6.7mph /  10.8km/h 90% 0in /  0.0mm
06:17 36.1 °F /  2.3 °C 33.8 °F /  1.0 °C 30.2in /  1021.9hPa NE 8.5mph /  13.7km/h 9.6mph /  15.4km/h 90% 0in /  0.0mm
06:22 36.1 °F /  2.3 °C 33.8 °F /  1.0 °C 30.2in /  1021.9hPa NE 7.8mph /  12.6km/h 9.8mph /  15.8km/h 90% 0in /  0.0mm
06:27 36.1 °F /  2.3 °C 33.8 °F /  1.0 °C 30.2in /  1021.9hPa NNE 7.4mph /  11.9km/h 9.8mph /  15.8km/h 90% 0in /  0.0mm
06:32 36.1 °F /  2.3 °C 33.8 °F /  1.0 °C 30.2in /  1022.9hPa NE 5.6mph /  9.0km/h 8.5mph /  13.7km/h 90% 0in /  0.0mm
06:37 36.1 °F /  2.3 °C 33.8 °F /  1.0 °C 30.2in /  1022.9hPa NNE 7.6mph /  12.2km/h 7.6mph /  12.2km/h 90% 0in /  0.0mm
06:42 36.1 °F /  2.3 °C 33.8 °F /  1.0 °C 30.2in /  1022.9hPa NNE 7.8mph /  12.6km/h 8.5mph /  13.7km/h 90% 0in /  0.0mm
06:47 36.1 °F /  2.3 °C 33.8 °F /  1.0 °C 30.2in /  1022.9hPa NE 6.5mph /  10.5km/h 8.5mph /  13.7km/h 90% 0in /  0.0mm
06:52 36.1 °F /  2.3 °C 33.8 °F /  1.0 °C 30.2in /  1022.9hPa NE 7.4mph /  11.9km/h 9.6mph /  15.4km/h 90% 0in /  0.0mm
06:57 36.1 °F /  2.3 °C 33.8 °F /  1.0 °C 30.2in /  1022.9hPa NE 6mph /  9.7km/h 9.6mph /  15.4km/h 90% 0in /  0.0mm
07:02 36.1 °F /  2.3 °C 33.8 °F /  1.0 °C 30.2in /  1022.9hPa NE 6mph /  9.7km/h 9.6mph /  15.4km/h 90% 0in /  0.0mm
07:07 36.1 °F /  2.3 °C 33.8 °F /  1.0 °C 30.2in /  1022.9hPa NE 5.8mph /  9.3km/h 5.8mph /  9.3km/h 90% 0in /  0.0mm
07:12 36.1 °F /  2.3 °C 33.8 °F /  1.0 °C 30.2in /  1022.9hPa NE 5.8mph /  9.3km/h 5.8mph /  9.3km/h 90% 0in /  0.0mm
07:17 36.1 °F /  2.3 °C 33.8 °F /  1.0 °C 30.2in /  1022.9hPa NNE 5.8mph /  9.3km/h 5.8mph /  9.3km/h 90% 0in /  0.0mm
07:22 36.1 °F /  2.3 °C 33.8 °F /  1.0 °C 30.2in /  1022.9hPa NNE 5.8mph /  9.3km/h 5.8mph /  9.3km/h 90% 0in /  0.0mm
07:27 36.1 °F /  2.3 °C 33.8 °F /  1.0 °C 30.2in /  1022.9hPa NNE 5.8mph /  9.3km/h 5.8mph /  9.3km/h 90% 0in /  0.0mm
07:32 36.1 °F /  2.3 °C 33.8 °F /  1.0 °C 30.2in /  1023.9hPa NNE 6mph /  9.7km/h 7.2mph /  11.6km/h 90% 0in /  0.0mm
07:37 36.1 °F /  2.3 °C 33.8 °F /  1.0 °C 30.2in /  1023.9hPa NNE 7.8mph /  12.6km/h 8.5mph /  13.7km/h 90% 0in /  0.0mm
07:42 36.1 °F /  2.3 °C 33.8 °F /  1.0 °C 30.2in /  1023.9hPa NNE 7.4mph /  11.9km/h 9.6mph /  15.4km/h 90% 0in /  0.0mm
07:47 36.1 °F /  2.3 °C 33.8 °F /  1.0 °C 30.2in /  1023.9hPa NE 7.8mph /  12.6km/h 10.5mph /  16.9km/h 90% 0in /  0.0mm
07:52 36.1 °F /  2.3 °C 33.8 °F /  1.0 °C 30.2in /  1023.9hPa NE 7.6mph /  12.2km/h 10.5mph /  16.9km/h 90% 0in /  0.0mm
07:57 36.1 °F /  2.3 °C 33.8 °F /  1.0 °C 30.2in /  1023.9hPa NE 7.2mph /  11.6km/h 10.7mph /  17.2km/h 90% 0in /  0.0mm
08:02 36.1 °F /  2.3 °C 33.8 °F /  1.0 °C 30.2in /  1023.9hPa NNE 5.8mph /  9.3km/h 11mph /  17.7km/h 90% 0in /  0.0mm
08:07 36.1 °F /  2.3 °C 33.8 °F /  1.0 °C 30.2in /  1023.9hPa NE 7.6mph /  12.2km/h 11mph /  17.7km/h 90% 0in /  0.0mm
08:12 36.1 °F /  2.3 °C 33.8 °F /  1.0 °C 30.2in /  1023.9hPa NE 11mph /  17.7km/h 12.3mph /  19.8km/h 90% 0in /  0.0mm
08:17 36.1 °F /  2.3 °C 33.8 °F /  1.0 °C 30.2in /  1023.9hPa NE 9.8mph /  15.8km/h 12.5mph /  20.1km/h 90% 0in /  0.0mm
08:22 36.1 °F /  2.3 °C 33.8 °F /  1.0 °C 30.2in /  1023.9hPa NNE 9.8mph /  15.8km/h 12.5mph /  20.1km/h 90% 0in /  0.0mm
08:27 36.1 °F /  2.3 °C 33.8 °F /  1.0 °C 30.2in /  1023.9hPa ENE 6.3mph /  10.1km/h 12.8mph /  20.6km/h 90% 0in /  0.0mm
08:32 36.1 °F /  2.3 °C 33.8 °F /  1.0 °C 30.2in /  1023.9hPa NE 7.6mph /  12.2km/h 12.8mph /  20.6km/h 90% 0in /  0.0mm
08:37 36.1 °F /  2.3 °C 33.8 °F /  1.0 °C 30.2in /  1023.9hPa NE 9.8mph /  15.8km/h 12.5mph /  20.1km/h 90% 0in /  0.0mm
08:42 36.1 °F /  2.3 °C 33.8 °F /  1.0 °C 30.2in /  1023.9hPa ENE 8.7mph /  14.0km/h 12.5mph /  20.1km/h 90% 0in /  0.0mm
08:47 36.1 °F /  2.3 °C 33.8 °F /  1.0 °C 30.2in /  1023.9hPa ENE 9.8mph /  15.8km/h 12.3mph /  19.8km/h 90% 0in /  0.0mm
08:52 36.1 °F /  2.3 °C 33.8 °F /  1.0 °C 30.2in /  1023.9hPa ENE 8.1mph /  13.0km/h 11mph /  17.7km/h 90% 0in /  0.0mm
09:00 36.1 °F /  2.3 °C 33.8 °F /  1.0 °C 30.2in /  1023.9hPa NNE 7.6mph /  12.2km/h 11.4mph /  18.3km/h 90% 0in /  0.0mm
09:05 36.1 °F /  2.3 °C 33.8 °F /  1.0 °C 30.2in /  1023.9hPa ENE 8.7mph /  14.0km/h 11.4mph /  18.3km/h 90% 0in /  0.0mm
09:10 36.1 °F /  2.3 °C 33.8 °F /  1.0 °C 30.2in /  1023.9hPa NE 5.8mph /  9.3km/h 11.9mph /  19.1km/h 90% 0in /  0.0mm
09:15 36.1 °F /  2.3 °C 33.8 °F /  1.0 °C 30.2in /  1023.9hPa ENE 7.4mph /  11.9km/h 11.9mph /  19.1km/h 90% 0in /  0.0mm
09:20 36.1 °F /  2.3 °C 33.8 °F /  1.0 °C 30.2in /  1023.9hPa ENE 5.8mph /  9.3km/h 10.1mph /  16.3km/h 90% 0in /  0.0mm
09:25 36.1 °F /  2.3 °C 33.8 °F /  1.0 °C 30.2in /  1023.9hPa NE 5.8mph /  9.3km/h 10.3mph /  16.6km/h 90% 0in /  0.0mm
09:30 36.1 °F /  2.3 °C 33.8 °F /  1.0 °C 30.2in /  1023.9hPa NE 8.5mph /  13.7km/h 10.3mph /  16.6km/h 90% 0in /  0.0mm
09:35 36.1 °F /  2.3 °C 33.8 °F /  1.0 °C 30.2in /  1023.9hPa ENE 12.5mph /  20.1km/h 14.8mph /  23.8km/h 90% 0in /  0.0mm
09:40 36.1 °F /  2.3 °C 33.8 °F /  1.0 °C 30.2in /  1023.9hPa ENE 10.3mph /  16.6km/h 14.8mph /  23.8km/h 90% 0in /  0.0mm
09:45 36.1 °F /  2.3 °C 33.8 °F /  1.0 °C 30.2in /  1023.9hPa East 10.1mph /  16.3km/h 14.8mph /  23.8km/h 90% 0in /  0.0mm
09:51 36.1 °F /  2.3 °C 33.8 °F /  1.0 °C 30.2in /  1023.9hPa ENE 17.7mph /  28.5km/h 17.7mph /  28.5km/h 90% 0in /  0.0mm
09:56 36.1 °F /  2.3 °C 33.8 °F /  1.0 °C 30.2in /  1023.9hPa ENE 17.7mph /  28.5km/h 17.7mph /  28.5km/h 90% 0in /  0.0mm
10:01 36.1 °F /  2.3 °C 33.8 °F /  1.0 °C 30.2in /  1023.9hPa ENE 8.5mph /  13.7km/h 8.5mph /  13.7km/h 90% 0in /  0.0mm
10:06 36.1 °F /  2.3 °C 33.8 °F /  1.0 °C 30.2in /  1023.9hPa ENE 10.7mph /  17.2km/h 14.3mph /  23.0km/h 90% 0in /  0.0mm
10:11 36.1 °F /  2.3 °C 33.8 °F /  1.0 °C 30.2in /  1023.9hPa NE 10.3mph /  16.6km/h 14.3mph /  23.0km/h 90% 0in /  0.0mm
10:16 36.1 °F /  2.3 °C 33.8 °F /  1.0 °C 30.2in /  1023.9hPa NE 8.7mph /  14.0km/h 12.5mph /  20.1km/h 90% 0in /  0.0mm
10:21 36.1 °F /  2.3 °C 33.8 °F /  1.0 °C 30.2in /  1023.9hPa ENE 8.7mph /  14.0km/h 14.5mph /  23.3km/h 90% 0in /  0.0mm
10:26 36.1 °F /  2.3 °C 33.8 °F /  1.0 °C 30.2in /  1023.9hPa ENE 9.8mph /  15.8km/h 14.5mph /  23.3km/h 90% 0in /  0.0mm
10:31 32 °F /  0.0 °C 33.8 °F /  1.0 °C 0in /  0.0hPa ENE 8.5mph /  13.7km/h 12.1mph /  19.5km/h 0% 0in /  0.0mm
10:36 32 °F /  0.0 °C 33.8 °F /  1.0 °C 30.2in /  1023.9hPa ENE 8.5mph /  13.7km/h 12.1mph /  19.5km/h 0% 0in /  0.0mm
10:41 32 °F /  0.0 °C 33.8 °F /  1.0 °C 30.2in /  1023.9hPa NE 5.8mph /  9.3km/h 8.9mph /  14.3km/h 0% 0in /  0.0mm
10:46 32 °F /  0.0 °C 33.8 °F /  1.0 °C 30.2in /  1023.9hPa NE 6.5mph /  10.5km/h 7.6mph /  12.2km/h 0% 0in /  0.0mm
10:51 32 °F /  0.0 °C 33.8 °F /  1.0 °C 30.2in /  1023.9hPa ENE 5.8mph /  9.3km/h 6.5mph /  10.5km/h 0% 0in /  0.0mm
10:56 32 °F /  0.0 °C 33.8 °F /  1.0 °C 30.2in /  1023.9hPa East 7.8mph /  12.6km/h 9.6mph /  15.4km/h 0% 0in /  0.0mm
11:01 32 °F /  0.0 °C 33.8 °F /  1.0 °C 30.2in /  1022.9hPa NE 6.5mph /  10.5km/h 9.6mph /  15.4km/h 0% 0in /  0.0mm
11:06 40.3 °F /  4.6 °C 26.6 °F /  -3.0 °C 30.2in /  1022.9hPa NE 6.5mph /  10.5km/h 8.1mph /  13.0km/h 57% 0in /  0.0mm
11:11 38.5 °F /  3.6 °C 26.6 °F /  -3.0 °C 30.2in /  1022.9hPa NE 6.5mph /  10.5km/h 6.5mph /  10.5km/h 61% 0in /  0.0mm
11:16 37.4 °F /  3.0 °C 28.4 °F /  -2.0 °C 30.2in /  1022.9hPa NE 6.5mph /  10.5km/h 6.5mph /  10.5km/h 67% 0in /  0.0mm
11:21 36.9 °F /  2.7 °C 28.4 °F /  -2.0 °C 30.2in /  1022.9hPa NE 6.5mph /  10.5km/h 6.5mph /  10.5km/h 70% 0in /  0.0mm
11:27 36.5 °F /  2.5 °C 30.2 °F /  -1.0 °C 30.2in /  1022.9hPa NE 6.5mph /  10.5km/h 6.5mph /  10.5km/h 73% 0in /  0.0mm
11:32 36.3 °F /  2.4 °C 30.2 °F /  -1.0 °C 30.2in /  1022.9hPa NE 6.5mph /  10.5km/h 6.5mph /  10.5km/h 74% 0in /  0.0mm
11:43 36.5 °F /  2.5 °C 30.2 °F /  -1.0 °C 30.2in /  1022.9hPa NE 6.5mph /  10.5km/h 6.5mph /  10.5km/h 77% 0in /  0.0mm
11:48 36.3 °F /  2.4 °C 30.2 °F /  -1.0 °C 30.2in /  1022.9hPa NE 6.5mph /  10.5km/h 6.5mph /  10.5km/h 77% 0in /  0.0mm
11:53 36.1 °F /  2.3 °C 30.2 °F /  -1.0 °C 30.2in /  1022.9hPa NE 6.5mph /  10.5km/h 6.5mph /  10.5km/h 77% 0in /  0.0mm
11:58 36 °F /  2.2 °C 30.2 °F /  -1.0 °C 30.2in /  1022.9hPa NE 6.5mph /  10.5km/h 6.5mph /  10.5km/h 77% 0in /  0.0mm
12:03 36 °F /  2.2 °C 30.2 °F /  -1.0 °C 30.2in /  1022.9hPa NE 6.5mph /  10.5km/h 6.5mph /  10.5km/h 78% 0in /  0.0mm
12:08 36.1 °F /  2.3 °C 30.2 °F /  -1.0 °C 30.2in /  1022.9hPa NE 6.5mph /  10.5km/h 6.5mph /  10.5km/h 78% 0in /  0.0mm
12:13 36.1 °F /  2.3 °C 30.2 °F /  -1.0 °C 30.2in /  1022.9hPa NE 6.5mph /  10.5km/h 6.5mph /  10.5km/h 77% 0in /  0.0mm
12:18 36.1 °F /  2.3 °C 30.2 °F /  -1.0 °C 30.2in /  1022.9hPa NNE 10.3mph /  16.6km/h 10.3mph /  16.6km/h 77% 0in /  0.0mm
12:23 36.3 °F /  2.4 °C 30.2 °F /  -1.0 °C 30.2in /  1022.9hPa NNE 10.3mph /  16.6km/h 10.3mph /  16.6km/h 77% 0in /  0.0mm
12:28 36.7 °F /  2.6 °C 30.2 °F /  -1.0 °C 30.2in /  1022.9hPa NNE 10.3mph /  16.6km/h 10.3mph /  16.6km/h 77% 0in /  0.0mm
12:33 36.9 °F /  2.7 °C 30.2 °F /  -1.0 °C 30.2in /  1022.9hPa NNE 10.3mph /  16.6km/h 10.3mph /  16.6km/h 76% 0in /  0.0mm
12:38 37 °F /  2.8 °C 30.2 °F /  -1.0 °C 30.2in /  1022.9hPa East 6.5mph /  10.5km/h 10.3mph /  16.6km/h 76% 0in /  0.0mm
12:43 37.4 °F /  3.0 °C 30.2 °F /  -1.0 °C 30.2in /  1022.9hPa East 6.5mph /  10.5km/h 7.4mph /  11.9km/h 75% 0in /  0.0mm
12:48 37.4 °F /  3.0 °C 30.2 °F /  -1.0 °C 30.2in /  1022.9hPa East 6.5mph /  10.5km/h 6.5mph /  10.5km/h 74% 0in /  0.0mm
12:53 37.6 °F /  3.1 °C 30.2 °F /  -1.0 °C 30.2in /  1022.9hPa East 6.5mph /  10.5km/h 6.5mph /  10.5km/h 75% 0in /  0.0mm
12:58 38.1 °F /  3.4 °C 32 °F /  0.0 °C 30.2in /  1022.9hPa East 6.5mph /  10.5km/h 6.5mph /  10.5km/h 75% 0in /  0.0mm
13:03 38.3 °F /  3.5 °C 32 °F /  0.0 °C 30.2in /  1022.9hPa East 6.5mph /  10.5km/h 6.5mph /  10.5km/h 74% 0in /  0.0mm
13:08 38.7 °F /  3.7 °C 32 °F /  0.0 °C 30.2in /  1022.9hPa East 6.5mph /  10.5km/h 6.5mph /  10.5km/h 74% 0in /  0.0mm
13:13 38.7 °F /  3.7 °C 30.2 °F /  -1.0 °C 30.2in /  1022.9hPa East 6.5mph /  10.5km/h 6.5mph /  10.5km/h 73% 0in /  0.0mm
13:18 38.7 °F /  3.7 °C 30.2 °F /  -1.0 °C 30.2in /  1022.9hPa East 6.5mph /  10.5km/h 6.5mph /  10.5km/h 73% 0in /  0.0mm
13:23 38.5 °F /  3.6 °C 30.2 °F /  -1.0 °C 30.2in /  1022.9hPa East 6.5mph /  10.5km/h 6.5mph /  10.5km/h 72% 0in /  0.0mm
13:28 37.9 °F /  3.3 °C 30.2 °F /  -1.0 °C 30.2in /  1022.9hPa East 6.5mph /  10.5km/h 6.5mph /  10.5km/h 72% 0in /  0.0mm
13:34 37.9 °F /  3.3 °C 30.2 °F /  -1.0 °C 30.2in /  1022.9hPa East 6.5mph /  10.5km/h 6.5mph /  10.5km/h 72% 0in /  0.0mm
13:39 38.3 °F /  3.5 °C 32 °F /  0.0 °C 30.2in /  1022.9hPa East 6.5mph /  10.5km/h 6.5mph /  10.5km/h 74% 0in /  0.0mm
13:44 38.5 °F /  3.6 °C 30.2 °F /  -1.0 °C 30.2in /  1022.9hPa East 6.5mph /  10.5km/h 6.5mph /  10.5km/h 73% 0in /  0.0mm
13:49 38.7 °F /  3.7 °C 30.2 °F /  -1.0 °C 30.2in /  1022.9hPa East 6.5mph /  10.5km/h 6.5mph /  10.5km/h 72% 0in /  0.0mm
13:54 38.8 °F /  3.8 °C 32 °F /  0.0 °C 30.2in /  1022.9hPa East 6.5mph /  10.5km/h 6.5mph /  10.5km/h 74% 0in /  0.0mm
13:59 38.8 °F /  3.8 °C 30.2 °F /  -1.0 °C 30.2in /  1021.9hPa East 6.5mph /  10.5km/h 6.5mph /  10.5km/h 72% 0in /  0.0mm
14:04 38.7 °F /  3.7 °C 30.2 °F /  -1.0 °C 30.2in /  1021.9hPa East 6.5mph /  10.5km/h 6.5mph /  10.5km/h 71% 0in /  0.0mm
14:09 38.7 °F /  3.7 °C 30.2 °F /  -1.0 °C 30.2in /  1021.9hPa East 6.5mph /  10.5km/h 6.5mph /  10.5km/h 72% 0in /  0.0mm
14:14 38.5 °F /  3.6 °C 30.2 °F /  -1.0 °C 30.2in /  1021.9hPa East 6.5mph /  10.5km/h 6.5mph /  10.5km/h 72% 0in /  0.0mm
14:19 38.8 °F /  3.8 °C 30.2 °F /  -1.0 °C 30.2in /  1021.9hPa East 6.5mph /  10.5km/h 6.5mph /  10.5km/h 72% 0in /  0.0mm
14:24 39 °F /  3.9 °C 30.2 °F /  -1.0 °C 30.2in /  1021.9hPa East 6.5mph /  10.5km/h 6.5mph /  10.5km/h 71% 0in /  0.0mm
14:29 39.2 °F /  4.0 °C 30.2 °F /  -1.0 °C 30.2in /  1021.9hPa East 6.5mph /  10.5km/h 6.5mph /  10.5km/h 71% 0in /  0.0mm
14:34 39.6 °F /  4.2 °C 32 °F /  0.0 °C 30.2in /  1021.9hPa East 6.5mph /  10.5km/h 6.5mph /  10.5km/h 71% 0in /  0.0mm
14:39 39.7 °F /  4.3 °C 30.2 °F /  -1.0 °C 30.2in /  1021.9hPa East 6.5mph /  10.5km/h 6.5mph /  10.5km/h 70% 0in /  0.0mm
14:44 39.7 °F /  4.3 °C 30.2 °F /  -1.0 °C 30.2in /  1021.9hPa East 6.5mph /  10.5km/h 6.5mph /  10.5km/h 69% 0in /  0.0mm
14:50 39.7 °F /  4.3 °C 30.2 °F /  -1.0 °C 30.2in /  1021.9hPa East 6.5mph /  10.5km/h 6.5mph /  10.5km/h 68% 0in /  0.0mm
14:55 39.9 °F /  4.4 °C 30.2 °F /  -1.0 °C 30.2in /  1021.9hPa East 6.5mph /  10.5km/h 6.5mph /  10.5km/h 67% 0in /  0.0mm
15:00 40.1 °F /  4.5 °C 30.2 °F /  -1.0 °C 30.2in /  1020.9hPa East 6.5mph /  10.5km/h 6.5mph /  10.5km/h 66% 0in /  0.0mm
15:05 39.7 °F /  4.3 °C 30.2 °F /  -1.0 °C 30.2in /  1020.9hPa NE 13.2mph /  21.2km/h 13.2mph /  21.2km/h 66% 0in /  0.0mm
15:10 39.4 °F /  4.1 °C 28.4 °F /  -2.0 °C 30.2in /  1020.9hPa NE 13.2mph /  21.2km/h 13.2mph /  21.2km/h 66% 0in /  0.0mm
15:15 39.4 °F /  4.1 °C 30.2 °F /  -1.0 °C 30.2in /  1020.9hPa NE 13.2mph /  21.2km/h 13.2mph /  21.2km/h 67% 0in /  0.0mm
15:20 39.4 °F /  4.1 °C 30.2 °F /  -1.0 °C 30.2in /  1020.9hPa NE 13.2mph /  21.2km/h 13.2mph /  21.2km/h 68% 0in /  0.0mm
15:25 39 °F /  3.9 °C 30.2 °F /  -1.0 °C 30.2in /  1020.9hPa NE 13.2mph /  21.2km/h 13.2mph /  21.2km/h 68% 0in /  0.0mm
15:30 38.7 °F /  3.7 °C 30.2 °F /  -1.0 °C 30.2in /  1020.9hPa NE 10.3mph /  16.6km/h 12.8mph /  20.6km/h 69% 0in /  0.0mm
15:35 38.7 °F /  3.7 °C 30.2 °F /  -1.0 °C 30.2in /  1020.9hPa NE 10.3mph /  16.6km/h 12.8mph /  20.6km/h 71% 0in /  0.0mm
15:40 38.8 °F /  3.8 °C 30.2 °F /  -1.0 °C 30.2in /  1020.9hPa NE 10.3mph /  16.6km/h 10.3mph /  16.6km/h 69% 0in /  0.0mm
15:45 39 °F /  3.9 °C 30.2 °F /  -1.0 °C 30.1in /  1019.9hPa NE 10.3mph /  16.6km/h 10.3mph /  16.6km/h 69% 0in /  0.0mm
15:50 39.2 °F /  4.0 °C 30.2 °F /  -1.0 °C 30.1in /  1019.9hPa NE 10.3mph /  16.6km/h 10.3mph /  16.6km/h 67% 0in /  0.0mm
15:55 39.4 °F /  4.1 °C 30.2 °F /  -1.0 °C 30.1in /  1019.9hPa NE 10.3mph /  16.6km/h 10.3mph /  16.6km/h 68% 0in /  0.0mm
16:00 39.6 °F /  4.2 °C 30.2 °F /  -1.0 °C 30.2in /  1020.9hPa NE 10.3mph /  16.6km/h 10.3mph /  16.6km/h 68% 0in /  0.0mm
16:05 39.7 °F /  4.3 °C 30.2 °F /  -1.0 °C 30.2in /  1020.9hPa NE 10.3mph /  16.6km/h 10.3mph /  16.6km/h 68% 0in /  0.0mm
16:10 39.9 °F /  4.4 °C 30.2 °F /  -1.0 °C 30.2in /  1020.9hPa NE 10.3mph /  16.6km/h 10.3mph /  16.6km/h 69% 0in /  0.0mm
16:15 39.9 °F /  4.4 °C 30.2 °F /  -1.0 °C 30.2in /  1020.9hPa NE 10.3mph /  16.6km/h 10.3mph /  16.6km/h 69% 0in /  0.0mm
16:20 39.9 °F /  4.4 °C 30.2 °F /  -1.0 °C 30.2in /  1020.9hPa NE 10.3mph /  16.6km/h 10.3mph /  16.6km/h 69% 0in /  0.0mm
16:25 39.7 °F /  4.3 °C 30.2 °F /  -1.0 °C 30.2in /  1020.9hPa NE 10.3mph /  16.6km/h 10.3mph /  16.6km/h 69% 0in /  0.0mm
16:30 39.7 °F /  4.3 °C 30.2 °F /  -1.0 °C 30.2in /  1020.9hPa NE 10.3mph /  16.6km/h 10.3mph /  16.6km/h 67% 0in /  0.0mm
16:35 39.4 °F /  4.1 °C 30.2 °F /  -1.0 °C 30.2in /  1020.9hPa NE 10.3mph /  16.6km/h 10.3mph /  16.6km/h 67% 0in /  0.0mm
16:40 39.2 °F /  4.0 °C 30.2 °F /  -1.0 °C 30.2in /  1020.9hPa ENE 8.5mph /  13.7km/h 8.5mph /  13.7km/h 67% 0in /  0.0mm
16:45 39.2 °F /  4.0 °C 30.2 °F /  -1.0 °C 30.2in /  1020.9hPa ENE 8.5mph /  13.7km/h 8.5mph /  13.7km/h 67% 0in /  0.0mm
16:50 39 °F /  3.9 °C 30.2 °F /  -1.0 °C 30.2in /  1020.9hPa ENE 8.5mph /  13.7km/h 8.5mph /  13.7km/h 68% 0in /  0.0mm
16:55 38.8 °F /  3.8 °C 30.2 °F /  -1.0 °C 30.2in /  1020.9hPa ENE 8.5mph /  13.7km/h 8.5mph /  13.7km/h 69% 0in /  0.0mm
17:00 38.7 °F /  3.7 °C 30.2 °F /  -1.0 °C 30.2in /  1020.9hPa ENE 8.5mph /  13.7km/h 8.5mph /  13.7km/h 70% 0in /  0.0mm
17:05 38.5 °F /  3.6 °C 30.2 °F /  -1.0 °C 30.2in /  1020.9hPa ENE 8.5mph /  13.7km/h 8.5mph /  13.7km/h 68% 0in /  0.0mm
17:10 38.1 °F /  3.4 °C 28.4 °F /  -2.0 °C 30.2in /  1020.9hPa ENE 8.5mph /  13.7km/h 8.5mph /  13.7km/h 67% 0in /  0.0mm
17:15 37.9 °F /  3.3 °C 28.4 °F /  -2.0 °C 30.2in /  1020.9hPa ENE 8.5mph /  13.7km/h 8.5mph /  13.7km/h 68% 0in /  0.0mm
17:20 37.6 °F /  3.1 °C 28.4 °F /  -2.0 °C 30.2in /  1020.9hPa ENE 8.5mph /  13.7km/h 8.5mph /  13.7km/h 69% 0in /  0.0mm
17:25 37.4 °F /  3.0 °C 28.4 °F /  -2.0 °C 30.2in /  1020.9hPa ENE 8.5mph /  13.7km/h 8.5mph /  13.7km/h 70% 0in /  0.0mm
17:30 37 °F /  2.8 °C 30.2 °F /  -1.0 °C 30.2in /  1020.9hPa ENE 8.5mph /  13.7km/h 8.5mph /  13.7km/h 71% 0in /  0.0mm
17:35 37 °F /  2.8 °C 30.2 °F /  -1.0 °C 30.2in /  1020.9hPa ENE 8.5mph /  13.7km/h 8.5mph /  13.7km/h 73% 0in /  0.0mm
17:40 36.9 °F /  2.7 °C 30.2 °F /  -1.0 °C 30.2in /  1020.9hPa ENE 8.5mph /  13.7km/h 8.5mph /  13.7km/h 73% 0in /  0.0mm
17:45 36.7 °F /  2.6 °C 30.2 °F /  -1.0 °C 30.2in /  1020.9hPa ENE 8.5mph /  13.7km/h 8.5mph /  13.7km/h 74% 0in /  0.0mm
17:50 36.7 °F /  2.6 °C 30.2 °F /  -1.0 °C 30.2in /  1020.9hPa ENE 8.5mph /  13.7km/h 8.5mph /  13.7km/h 73% 0in /  0.0mm
17:55 36.5 °F /  2.5 °C 30.2 °F /  -1.0 °C 30.2in /  1020.9hPa ENE 8.5mph /  13.7km/h 8.5mph /  13.7km/h 73% 0in /  0.0mm
18:00 36.5 °F /  2.5 °C 30.2 °F /  -1.0 °C 30.2in /  1020.9hPa ENE 8.5mph /  13.7km/h 8.5mph /  13.7km/h 73% 0in /  0.0mm
18:05 36.5 °F /  2.5 °C 30.2 °F /  -1.0 °C 30.2in /  1020.9hPa ENE 8.5mph /  13.7km/h 8.5mph /  13.7km/h 73% 0in /  0.0mm
18:10 36.3 °F /  2.4 °C 28.4 °F /  -2.0 °C 30.2in /  1020.9hPa ENE 8.5mph /  13.7km/h 8.5mph /  13.7km/h 73% 0in /  0.0mm
18:16 36.1 °F /  2.3 °C 30.2 °F /  -1.0 °C 30.2in /  1020.9hPa ENE 8.5mph /  13.7km/h 8.5mph /  13.7km/h 74% 0in /  0.0mm
18:21 36.1 °F /  2.3 °C 30.2 °F /  -1.0 °C 30.2in /  1020.9hPa ENE 8.5mph /  13.7km/h 8.5mph /  13.7km/h 75% 0in /  0.0mm
18:26 35.8 °F /  2.1 °C 30.2 °F /  -1.0 °C 30.2in /  1020.9hPa ENE 8.5mph /  13.7km/h 8.5mph /  13.7km/h 75% 0in /  0.0mm
18:31 35.4 °F /  1.9 °C 28.4 °F /  -2.0 °C 30.2in /  1020.9hPa ENE 8.5mph /  13.7km/h 8.5mph /  13.7km/h 76% 0in /  0.0mm
18:36 35.4 °F /  1.9 °C 30.2 °F /  -1.0 °C 30.2in /  1020.9hPa ENE 8.5mph /  13.7km/h 8.5mph /  13.7km/h 77% 0in /  0.0mm
18:41 35.4 °F /  1.9 °C 30.2 °F /  -1.0 °C 30.2in /  1020.9hPa ENE 8.5mph /  13.7km/h 8.5mph /  13.7km/h 78% 0in /  0.0mm
18:46 35.4 °F /  1.9 °C 30.2 °F /  -1.0 °C 30.2in /  1020.9hPa ENE 8.5mph /  13.7km/h 8.5mph /  13.7km/h 79% 0in /  0.0mm
18:51 35.4 °F /  1.9 °C 30.2 °F /  -1.0 °C 30.2in /  1020.9hPa ENE 8.5mph /  13.7km/h 8.5mph /  13.7km/h 79% 0in /  0.0mm
18:56 35.4 °F /  1.9 °C 30.2 °F /  -1.0 °C 30.2in /  1020.9hPa ENE 8.5mph /  13.7km/h 8.5mph /  13.7km/h 79% 0in /  0.0mm
19:01 35.4 °F /  1.9 °C 30.2 °F /  -1.0 °C 30.2in /  1020.9hPa ENE 8.5mph /  13.7km/h 8.5mph /  13.7km/h 79% 0in /  0.0mm
19:06 35.2 °F /  1.8 °C 30.2 °F /  -1.0 °C 30.2in /  1020.9hPa ENE 8.5mph /  13.7km/h 8.5mph /  13.7km/h 79% 0in /  0.0mm
19:11 35.4 °F /  1.9 °C 30.2 °F /  -1.0 °C 30.2in /  1020.9hPa ENE 8.5mph /  13.7km/h 8.5mph /  13.7km/h 79% 0in /  0.0mm
19:16 35.4 °F /  1.9 °C 30.2 °F /  -1.0 °C 30.1in /  1019.9hPa ENE 8.5mph /  13.7km/h 8.5mph /  13.7km/h 78% 0in /  0.0mm
19:21 35.2 °F /  1.8 °C 28.4 °F /  -2.0 °C 30.1in /  1019.9hPa ENE 8.5mph /  13.7km/h 8.5mph /  13.7km/h 77% 0in /  0.0mm
19:26 35.2 °F /  1.8 °C 28.4 °F /  -2.0 °C 30.1in /  1019.9hPa ENE 8.5mph /  13.7km/h 8.5mph /  13.7km/h 77% 0in /  0.0mm
19:31 35.1 °F /  1.7 °C 28.4 °F /  -2.0 °C 30.2in /  1020.9hPa NE 9.2mph /  14.8km/h 9.2mph /  14.8km/h 77% 0in /  0.0mm
19:36 34.9 °F /  1.6 °C 28.4 °F /  -2.0 °C 30.2in /  1020.9hPa NNE 5.6mph /  9.0km/h 9.2mph /  14.8km/h 77% 0in /  0.0mm
19:41 34.5 °F /  1.4 °C 28.4 °F /  -2.0 °C 30.2in /  1020.9hPa NNE 5.8mph /  9.3km/h 9.2mph /  14.8km/h 78% 0in /  0.0mm
19:46 34.2 °F /  1.2 °C 28.4 °F /  -2.0 °C 30.1in /  1019.9hPa North 7.4mph /  11.9km/h 7.4mph /  11.9km/h 78% 0in /  0.0mm
19:51 33.8 °F /  1.0 °C 28.4 °F /  -2.0 °C 30.1in /  1019.9hPa North 7.4mph /  11.9km/h 7.4mph /  11.9km/h 79% 0in /  0.0mm
19:56 33.6 °F /  0.9 °C 28.4 °F /  -2.0 °C 30.1in /  1019.9hPa NNE 7.6mph /  12.2km/h 7.6mph /  12.2km/h 81% 0in /  0.0mm
20:01 33.4 °F /  0.8 °C 28.4 °F /  -2.0 °C 30.1in /  1019.9hPa NNE 7.6mph /  12.2km/h 7.6mph /  12.2km/h 81% 0in /  0.0mm
20:06 33.3 °F /  0.7 °C 28.4 °F /  -2.0 °C 30.1in /  1019.9hPa NNE 7.6mph /  12.2km/h 7.6mph /  12.2km/h 82% 0in /  0.0mm
20:11 33.6 °F /  0.9 °C 30.2 °F /  -1.0 °C 30.1in /  1019.9hPa NNE 7.6mph /  12.2km/h 7.6mph /  12.2km/h 84% 0in /  0.0mm
20:16 33.6 °F /  0.9 °C 30.2 °F /  -1.0 °C 30.1in /  1019.9hPa NNE 7.6mph /  12.2km/h 7.6mph /  12.2km/h 84% 0in /  0.0mm
20:21 33.4 °F /  0.8 °C 30.2 °F /  -1.0 °C 30.1in /  1019.9hPa NNE 7.6mph /  12.2km/h 7.6mph /  12.2km/h 84% 0in /  0.0mm
20:26 33.4 °F /  0.8 °C 30.2 °F /  -1.0 °C 30.1in /  1019.9hPa NE 6.5mph /  10.5km/h 6.5mph /  10.5km/h 84% 0in /  0.0mm
20:31 33.4 °F /  0.8 °C 30.2 °F /  -1.0 °C 30.1in /  1019.9hPa NE 6.5mph /  10.5km/h 6.5mph /  10.5km/h 85% 0in /  0.0mm
20:36 33.4 °F /  0.8 °C 30.2 °F /  -1.0 °C 30.1in /  1019.9hPa NE 6.5mph /  10.5km/h 6.5mph /  10.5km/h 85% 0in /  0.0mm
20:41 33.4 °F /  0.8 °C 30.2 °F /  -1.0 °C 30.1in /  1019.9hPa NE 6.5mph /  10.5km/h 6.5mph /  10.5km/h 86% 0in /  0.0mm
20:46 33.4 °F /  0.8 °C 30.2 °F /  -1.0 °C 30.1in /  1019.9hPa NE 6.5mph /  10.5km/h 6.5mph /  10.5km/h 86% 0in /  0.0mm
20:51 33.4 °F /  0.8 °C 30.2 °F /  -1.0 °C 30.1in /  1019.9hPa NE 6.5mph /  10.5km/h 6.5mph /  10.5km/h 86% 0in /  0.0mm
20:56 33.4 °F /  0.8 °C 30.2 °F /  -1.0 °C 30.1in /  1019.9hPa NE 6.5mph /  10.5km/h 6.5mph /  10.5km/h 87% 0in /  0.0mm
21:01 33.4 °F /  0.8 °C 30.2 °F /  -1.0 °C 30.1in /  1019.9hPa NE 6.5mph /  10.5km/h 6.5mph /  10.5km/h 87% 0in /  0.0mm
21:06 33.4 °F /  0.8 °C 30.2 °F /  -1.0 °C 30.1in /  1019.9hPa NNE 9.6mph /  15.4km/h 9.6mph /  15.4km/h 87% 0in /  0.0mm
21:11 33.4 °F /  0.8 °C 30.2 °F /  -1.0 °C 30.1in /  1019.9hPa NNE 9.6mph /  15.4km/h 9.6mph /  15.4km/h 87% 0in /  0.0mm
21:16 33.4 °F /  0.8 °C 30.2 °F /  -1.0 °C 30.1in /  1019.9hPa NNE 7.4mph /  11.9km/h 9.6mph /  15.4km/h 87% 0in /  0.0mm
21:21 33.3 °F /  0.7 °C 30.2 °F /  -1.0 °C 30.1in /  1019.9hPa NNE 7.4mph /  11.9km/h 9.6mph /  15.4km/h 87% 0in /  0.0mm
21:26 33.3 °F /  0.7 °C 30.2 °F /  -1.0 °C 30.1in /  1019.9hPa NNE 7.4mph /  11.9km/h 7.4mph /  11.9km/h 87% 0in /  0.0mm
21:31 33.3 °F /  0.7 °C 30.2 °F /  -1.0 °C 30.1in /  1019.9hPa NE 5.4mph /  8.7km/h 7.4mph /  11.9km/h 87% 0in /  0.0mm
21:37 33.1 °F /  0.6 °C 30.2 °F /  -1.0 °C 30.1in /  1019.9hPa NE 6.5mph /  10.5km/h 7.4mph /  11.9km/h 87% 0in /  0.0mm
21:42 33.1 °F /  0.6 °C 30.2 °F /  -1.0 °C 30.1in /  1019.9hPa NE 6.5mph /  10.5km/h 6.5mph /  10.5km/h 88% 0in /  0.0mm
21:47 32.9 °F /  0.5 °C 30.2 °F /  -1.0 °C 30.1in /  1019.9hPa NE 6.5mph /  10.5km/h 6.5mph /  10.5km/h 88% 0in /  0.0mm
21:52 32.9 °F /  0.5 °C 30.2 °F /  -1.0 °C 30.1in /  1019.9hPa NE 6.5mph /  10.5km/h 6.5mph /  10.5km/h 88% 0in /  0.0mm
21:57 32.9 °F /  0.5 °C 30.2 °F /  -1.0 °C 30.1in /  1019.9hPa NE 6.5mph /  10.5km/h 6.5mph /  10.5km/h 88% 0in /  0.0mm
22:02 32.9 °F /  0.5 °C 30.2 °F /  -1.0 °C 30.1in /  1018.8hPa NE 6.5mph /  10.5km/h 6.5mph /  10.5km/h 89% 0in /  0.0mm
22:07 32.9 °F /  0.5 °C 30.2 °F /  -1.0 °C 30.1in /  1018.8hPa NE 6.5mph /  10.5km/h 6.5mph /  10.5km/h 89% 0in /  0.0mm
22:12 32.9 °F /  0.5 °C 30.2 °F /  -1.0 °C 30.1in /  1018.8hPa NE 6.5mph /  10.5km/h 6.5mph /  10.5km/h 89% 0in /  0.0mm
22:17 32.9 °F /  0.5 °C 30.2 °F /  -1.0 °C 30.1in /  1018.8hPa NE 6.5mph /  10.5km/h 6.5mph /  10.5km/h 89% 0in /  0.0mm
22:22 32.9 °F /  0.5 °C 30.2 °F /  -1.0 °C 30.1in /  1018.8hPa NE 6.3mph /  10.1km/h 7.6mph /  12.2km/h 90% 0in /  0.0mm
22:27 32.9 °F /  0.5 °C 30.2 °F /  -1.0 °C 30.1in /  1018.8hPa NE 7.4mph /  11.9km/h 8.1mph /  13.0km/h 90% 0in /  0.0mm
22:32 32.9 °F /  0.5 °C 30.2 °F /  -1.0 °C 30.1in /  1018.8hPa NE 7.4mph /  11.9km/h 8.1mph /  13.0km/h 90% 0in /  0.0mm
22:37 33.1 °F /  0.6 °C 30.2 °F /  -1.0 °C 30.1in /  1018.8hPa NE 7.4mph /  11.9km/h 7.4mph /  11.9km/h 90% 0in /  0.0mm
22:43 32.9 °F /  0.5 °C 30.2 °F /  -1.0 °C 30.1in /  1018.8hPa NE 8.5mph /  13.7km/h 8.5mph /  13.7km/h 90% 0in /  0.0mm
22:48 32.9 °F /  0.5 °C 30.2 °F /  -1.0 °C 30.1in /  1018.8hPa NE 7.6mph /  12.2km/h 8.5mph /  13.7km/h 90% 0in /  0.0mm
22:53 32.9 °F /  0.5 °C 30.2 °F /  -1.0 °C 30.1in /  1018.8hPa NE 7.8mph /  12.6km/h 8.5mph /  13.7km/h 90% 0in /  0.0mm
22:58 32.9 °F /  0.5 °C 30.2 °F /  -1.0 °C 30.1in /  1018.8hPa NE 6.3mph /  10.1km/h 10.3mph /  16.6km/h 90% 0in /  0.0mm
23:03 32.7 °F /  0.4 °C 30.2 °F /  -1.0 °C 30.1in /  1018.2hPa ENE 8.7mph /  14.0km/h 13mph /  20.9km/h 90% 0in /  0.0mm
23:08 32.7 °F /  0.4 °C 30.2 °F /  -1.0 °C 30.1in /  1018.2hPa NE 9.8mph /  15.8km/h 13mph /  20.9km/h 90% 0in /  0.0mm
23:13 32.7 °F /  0.4 °C 30.2 °F /  -1.0 °C 30.1in /  1018.2hPa NE 7.8mph /  12.6km/h 13mph /  20.9km/h 90% 0in /  0.0mm
23:18 32.5 °F /  0.3 °C 30.2 °F /  -1.0 °C 30.1in /  1018.8hPa NE 6.5mph /  10.5km/h 13mph /  20.9km/h 90% 0in /  0.0mm
23:23 32.5 °F /  0.3 °C 30.2 °F /  -1.0 °C 30.1in /  1018.8hPa NNE 8.5mph /  13.7km/h 10.5mph /  16.9km/h 90% 0in /  0.0mm
23:28 32.5 °F /  0.3 °C 30.2 °F /  -1.0 °C 30.1in /  1018.8hPa NNE 8.5mph /  13.7km/h 10.5mph /  16.9km/h 90% 0in /  0.0mm
23:33 32.5 °F /  0.3 °C 30.2 °F /  -1.0 °C 30.1in /  1018.8hPa NE 8.1mph /  13.0km/h 8.9mph /  14.3km/h 90% 0in /  0.0mm
23:38 32.5 °F /  0.3 °C 30.2 °F /  -1.0 °C 30.1in /  1018.8hPa NE 7.8mph /  12.6km/h 8.9mph /  14.3km/h 90% 0in /  0.0mm
23:43 32.4 °F /  0.2 °C 30.2 °F /  -1.0 °C 30.1in /  1018.8hPa NE 7.6mph /  12.2km/h 10.3mph /  16.6km/h 90% 0in /  0.0mm
23:48 32.4 °F /  0.2 °C 30.2 °F /  -1.0 °C 30.1in /  1018.8hPa NE 6.5mph /  10.5km/h 10.3mph /  16.6km/h 90% 0in /  0.0mm
23:53 32.4 °F /  0.2 °C 30.2 °F /  -1.0 °C 30.1in /  1018.8hPa NE 6.5mph /  10.5km/h 12.3mph /  19.8km/h 90% 0in /  0.0mm
23:59 32.4 °F /  0.2 °C 30.2 °F /  -1.0 °C 30.1in /  1018.8hPa NE 7.8mph /  12.6km/h 12.3mph /  19.8km/h 90% 0in /  0.0mm
Données Historique de Météo Turbie

Mise a jour : 25/05/2018 06:52:16
Généré par Cumulus 1.9.4 (1099)